Observation data for Northwest Lubbock on 07/16/2019      Previous  Date  Next       Current Mesonet Observations  Soil Data  Daily Summary Page  Observations in Plain Language
KLBW 160500Z 15009G14KT 29/13 A3002 RMK A01 T02930126  RH  037%=      5-min Rain = 0
KLBW 160505Z 15010KT 29/13 A3002 RMK A01 T02930126  RH  037%=      5-min Rain = 0
KLBW 160510Z 15008KT 29/13 A3002 RMK A01 T02920126  RH  038%=      5-min Rain = 0
KLBW 160515Z 15009G14KT 29/13 A3002 RMK A01 T02910126  RH  038%=      5-min Rain = 0
KLBW 160520Z 15008KT 29/13 A3002 RMK A01 T02910127  RH  038%=      5-min Rain = 0
KLBW 160525Z 15008KT 29/13 A3002 RMK A01 T02890127  RH  038%=      5-min Rain = 0
KLBW 160530Z 15008G13KT 29/13 A3002 RMK A01 T02890127  RH  038%=      5-min Rain = 0
KLBW 160535Z 14008KT 29/13 A3002 RMK A01 T02880128  RH  039%=      5-min Rain = 0
KLBW 160540Z 15007KT 29/13 A3003 RMK A01 T02850129  RH  040%=      5-min Rain = 0
KLBW 160545Z 14007KT 28/13 A3003 RMK A01 T02830129  RH  040%=      5-min Rain = 0
KLBW 160550Z 15007KT 28/13 A3002 RMK A01 T02830130  RH  040%=      5-min Rain = 0
KLBW 160555Z 15005KT 28/13 A3002 RMK A01 T02810130  RH  041%=      5-min Rain = 0
KLBW 160600Z 15006KT 28/13 A3002 RMK A01 T02790131  RH  042%=      5-min Rain = 0
KLBW 160605Z 16006KT 28/13 A3002 RMK A01 T02770131  RH  042%=      5-min Rain = 0
KLBW 160610Z 16006G11KT 28/13 A3002 RMK A01 T02760132  RH  043%=      5-min Rain = 0
KLBW 160615Z 16007KT 28/13 A3002 RMK A01 T02770131  RH  042%=      5-min Rain = 0
KLBW 160620Z 16007KT 28/13 A3002 RMK A01 T02760132  RH  043%=      5-min Rain = 0
KLBW 160625Z 16007KT 28/13 A3001 RMK A01 T02750132  RH  043%=      5-min Rain = 0
KLBW 160630Z 16007KT 28/13 A3001 RMK A01 T02760131  RH  043%=      5-min Rain = 0
KLBW 160635Z 16007KT 28/13 A3001 RMK A01 T02760132  RH  043%=      5-min Rain = 0
KLBW 160640Z 15007KT 28/13 A3001 RMK A01 T02750131  RH  043%=      5-min Rain = 0
KLBW 160645Z 15008KT 28/13 A3001 RMK A01 T02760130  RH  042%=      5-min Rain = 0
KLBW 160650Z 16007KT 28/13 A3001 RMK A01 T02750130  RH  042%=      5-min Rain = 0
KLBW 160655Z 16007KT 28/13 A3002 RMK A01 T02750131  RH  043%=      5-min Rain = 0
KLBW 160700Z 16006KT 27/13 A3002 RMK A01 T02740132  RH  043%=      5-min Rain = 0
KLBW 160705Z 17007KT 27/13 A3002 RMK A01 T02730132  RH  044%=      5-min Rain = 0
KLBW 160710Z 16007KT 27/13 A3002 RMK A01 T02730132  RH  043%=      5-min Rain = 0
KLBW 160715Z 16007KT 27/13 A3002 RMK A01 T02720132  RH  044%=      5-min Rain = 0
KLBW 160720Z 16007KT 27/13 A3002 RMK A01 T02720131  RH  044%=      5-min Rain = 0
KLBW 160725Z 16007KT 27/13 A3002 RMK A01 T02710131  RH  044%=      5-min Rain = 0
KLBW 160730Z 16007KT 27/13 A3002 RMK A01 T02710131  RH  044%=      5-min Rain = 0
KLBW 160735Z 17007KT 27/13 A3002 RMK A01 T02710130  RH  044%=      5-min Rain = 0
KLBW 160740Z 16007KT 27/13 A3001 RMK A01 T02700130  RH  044%=      5-min Rain = 0
KLBW 160745Z 16007KT 27/13 A3001 RMK A01 T02700131  RH  044%=      5-min Rain = 0
KLBW 160750Z 16007KT 27/13 A3001 RMK A01 T02690132  RH  044%=      5-min Rain = 0
KLBW 160755Z 17008KT 27/13 A3001 RMK A01 T02700132  RH  045%=      5-min Rain = 0
KLBW 160800Z 17008KT 27/13 A3001 RMK A01 T02700133  RH  044%=      5-min Rain = 0
KLBW 160805Z 17006KT 27/13 A3001 RMK A01 T02690134  RH  045%=      5-min Rain = 0
KLBW 160810Z 17005KT 27/13 A3001 RMK A01 T02670134  RH  046%=      5-min Rain = 0
KLBW 160815Z 17006KT 27/14 A3001 RMK A01 T02650135  RH  046%=      5-min Rain = 0
KLBW 160820Z 17006KT 27/14 A3001 RMK A01 T02650136  RH  047%=      5-min Rain = 0
KLBW 160825Z 17007KT 27/14 A3001 RMK A01 T02660137  RH  047%=      5-min Rain = 0
KLBW 160830Z 16007KT 27/14 A3001 RMK A01 T02670138  RH  047%=      5-min Rain = 0
KLBW 160835Z 17008G14KT 27/14 A30 RMK A01 T02680138  RH  047%=      5-min Rain = 0
KLBW 160840Z 17007KT 27/14 A30 RMK A01 T02680139  RH  047%=      5-min Rain = 0
KLBW 160845Z 17008G13KT 27/14 A30 RMK A01 T02670140  RH  047%=      5-min Rain = 0
KLBW 160850Z 17008KT 27/14 A30 RMK A01 T02670141  RH  048%=      5-min Rain = 0
KLBW 160855Z 17007KT 27/14 A30 RMK A01 T02670141  RH  048%=      5-min Rain = 0
KLBW 160900Z 17008KT 27/14 A30 RMK A01 T02670142  RH  048%=      5-min Rain = 0
KLBW 160905Z 18007KT 27/14 A30 RMK A01 T02660143  RH  049%=      5-min Rain = 0
KLBW 160910Z 19007KT 27/14 A30 RMK A01 T02650143  RH  049%=      5-min Rain = 0
KLBW 160915Z 19006KT 26/14 A30 RMK A01 T02640143  RH  049%=      5-min Rain = 0
KLBW 160920Z 19007KT 26/14 A30 RMK A01 T02630143  RH  050%=      5-min Rain = 0
KLBW 160925Z 19007KT 26/14 A30 RMK A01 T02630143  RH  050%=      5-min Rain = 0
KLBW 160930Z 19007KT 26/14 A30 RMK A01 T02620143  RH  050%=      5-min Rain = 0
KLBW 160935Z 19008KT 26/14 A30 RMK A01 T02620144  RH  050%=      5-min Rain = 0
KLBW 160940Z 20008KT 26/14 A30 RMK A01 T02620144  RH  050%=      5-min Rain = 0
KLBW 160945Z 20007KT 26/15 A30 RMK A01 T02610145  RH  051%=      5-min Rain = 0
KLBW 160950Z 20008KT 26/15 A30 RMK A01 T02620146  RH  051%=      5-min Rain = 0
KLBW 160955Z 20007KT 26/15 A30 RMK A01 T02610145  RH  051%=      5-min Rain = 0
KLBW 161000Z 19008G13KT 26/15 A30 RMK A01 T02610146  RH  051%=      5-min Rain = 0
KLBW 161005Z 20009KT 26/15 A30 RMK A01 T02620146  RH  051%=      5-min Rain = 0
KLBW 161010Z 20008KT 26/15 A30 RMK A01 T02600146  RH  052%=      5-min Rain = 0
KLBW 161015Z 21009KT 26/15 A30 RMK A01 T02580146  RH  052%=      5-min Rain = 0
KLBW 161020Z 20009KT 26/15 A30 RMK A01 T02580146  RH  052%=      5-min Rain = 0
KLBW 161025Z 20009KT 26/15 A30 RMK A01 T02580147  RH  053%=      5-min Rain = 0
KLBW 161030Z 20010KT 26/15 A30 RMK A01 T02580147  RH  052%=      5-min Rain = 0
KLBW 161035Z 20010G15KT 26/15 A30 RMK A01 T02580148  RH  053%=      5-min Rain = 0
KLBW 161040Z 20010KT 26/15 A30 RMK A01 T02580148  RH  053%=      5-min Rain = 0
KLBW 161045Z 21010KT 26/15 A3001 RMK A01 T02570149  RH  053%=      5-min Rain = 0
KLBW 161050Z 21010KT 26/15 A3001 RMK A01 T02560149  RH  054%=      5-min Rain = 0
KLBW 161055Z 21008G13KT 26/15 A3001 RMK A01 T02550149  RH  054%=      5-min Rain = 0
KLBW 161100Z 20009KT 25/15 A3001 RMK A01 T02530149  RH  055%=      5-min Rain = 0
KLBW 161105Z 20009KT 25/15 A3001 RMK A01 T02520149  RH  055%=      5-min Rain = 0
KLBW 161110Z 21008KT 25/15 A3001 RMK A01 T02520149  RH  055%=      5-min Rain = 0
KLBW 161115Z 21007G13KT 25/15 A3002 RMK A01 T02510150  RH  056%=      5-min Rain = 0
KLBW 161120Z 20006KT 25/15 A3002 RMK A01 T02490149  RH  056%=      5-min Rain = 0
KLBW 161125Z 21007KT 25/15 A3002 RMK A01 T02460150  RH  057%=      5-min Rain = 0
KLBW 161130Z 20007KT 25/15 A3002 RMK A01 T02460150  RH  057%=      5-min Rain = 0
KLBW 161135Z 19007KT 25/15 A3002 RMK A01 T02470149  RH  057%=      5-min Rain = 0
KLBW 161140Z 18006KT 25/15 A3002 RMK A01 T02460150  RH  058%=      5-min Rain = 0
KLBW 161145Z 19006KT 25/15 A3002 RMK A01 T02450150  RH  058%=      5-min Rain = 0
KLBW 161150Z 19007KT 24/15 A3002 RMK A01 T02440150  RH  058%=      5-min Rain = 0
KLBW 161155Z 18007KT 25/15 A3002 RMK A01 T02450150  RH  058%=      5-min Rain = 0
KLBW 161200Z 18007KT 24/15 A3002 RMK A01 T02440151  RH  058%=      5-min Rain = 0
KLBW 161205Z 18007G12KT 24/15 A3002 RMK A01 T02440151  RH  059%=      5-min Rain = 0
KLBW 161210Z 18007G12KT 25/15 A3002 RMK A01 T02450152  RH  059%=      5-min Rain = 0
KLBW 161215Z 19007KT 25/15 A3002 RMK A01 T02450152  RH  059%=      5-min Rain = 0
KLBW 161220Z 19008KT 25/15 A3003 RMK A01 T02470153  RH  058%=      5-min Rain = 0
KLBW 161225Z 18007KT 25/15 A3003 RMK A01 T02490154  RH  058%=      5-min Rain = 0
KLBW 161230Z 19008KT 25/16 A3003 RMK A01 T02510155  RH  058%=      5-min Rain = 0
KLBW 161235Z 18009KT 25/16 A3003 RMK A01 T02530155  RH  057%=      5-min Rain = 0
KLBW 161240Z 18009G14KT 25/16 A3003 RMK A01 T02540155  RH  057%=      5-min Rain = 0
KLBW 161245Z 19010KT 26/16 A3003 RMK A01 T02560155  RH  056%=      5-min Rain = 0
KLBW 161250Z 19011KT 26/16 A3003 RMK A01 T02580156  RH  056%=      5-min Rain = 0
KLBW 161255Z 19011G16KT 26/16 A3003 RMK A01 T02600157  RH  055%=      5-min Rain = 0
KLBW 161300Z 19010G17KT 26/16 A3003 RMK A01 T02630157  RH  055%=      5-min Rain = 0
KLBW 161305Z 19012KT 27/16 A3003 RMK A01 T02650157  RH  054%=      5-min Rain = 0
KLBW 161310Z 18013G20KT 27/16 A3003 RMK A01 T02660157  RH  054%=      5-min Rain = 0
KLBW 161315Z 19011G16KT 27/16 A3003 RMK A01 T02680158  RH  053%=      5-min Rain = 0
KLBW 161320Z 19011G16KT 27/16 A3003 RMK A01 T02700158  RH  053%=      5-min Rain = 0
KLBW 161325Z 20011KT 27/16 A3004 RMK A01 T02720157  RH  052%=      5-min Rain = 0
KLBW 161330Z 22009G14KT 27/16 A3004 RMK A01 T02730158  RH  052%=      5-min Rain = 0
KLBW 161335Z 23010KT 27/16 A3005 RMK A01 T02740158  RH  052%=      5-min Rain = 0
KLBW 161340Z 21010G17KT 27/16 A3005 RMK A01 T02730158  RH  052%=      5-min Rain = 0
KLBW 161345Z 20012G18KT 28/16 A3005 RMK A01 T02750157  RH  051%=      5-min Rain = 0
KLBW 161350Z 19011KT 28/16 A3005 RMK A01 T02780159  RH  050%=      5-min Rain = 0
KLBW 161355Z 20009G14KT 28/16 A3004 RMK A01 T02770158  RH  051%=      5-min Rain = 0
KLBW 161400Z 20008G13KT 28/16 A3005 RMK A01 T02760159  RH  051%=      5-min Rain = 0
KLBW 161405Z 20010KT 28/16 A3005 RMK A01 T02800158  RH  050%=      5-min Rain = 0
KLBW 161410Z 20013KT 28/16 A3005 RMK A01 T02810156  RH  049%=      5-min Rain = 0
KLBW 161415Z 20011KT 28/16 A3005 RMK A01 T02780156  RH  050%=      5-min Rain = 0
KLBW 161420Z 20010G15KT 28/16 A3005 RMK A01 T02820158  RH  049%=      5-min Rain = 0
KLBW 161425Z 20012G19KT 29/16 A3005 RMK A01 T02870157  RH  047%=      5-min Rain = 0
KLBW 161430Z 21012G19KT 29/16 A3005 RMK A01 T02900156  RH  046%=      5-min Rain = 0
KLBW 161435Z 20011G16KT 29/16 A3006 RMK A01 T02910155  RH  046%=      5-min Rain = 0
KLBW 161440Z 20010KT 30/16 A3006 RMK A01 T02960157  RH  045%=      5-min Rain = 0
KLBW 161445Z 20012G17KT 30/16 A3006 RMK A01 T02990155  RH  044%=      5-min Rain = 0
KLBW 161450Z 20012G17KT 30/15 A3006 RMK A01 T02950153  RH  044%=      5-min Rain = 0
KLBW 161455Z 20013G19KT 30/15 A3006 RMK A01 T02950152  RH  044%=      5-min Rain = 0
KLBW 161500Z 20012G18KT 30/15 A3006 RMK A01 T02990153  RH  043%=      5-min Rain = 0
KLBW 161505Z 21012G17KT 30/15 A3006 RMK A01 T03000153  RH  043%=      5-min Rain = 0
KLBW 161510Z 20013KT 30/15 A3006 RMK A01 T03030152  RH  042%=      5-min Rain = 0
KLBW 161515Z 20012G17KT 31/15 A3006 RMK A01 T03060153  RH  041%=      5-min Rain = 0
KLBW 161520Z 19012KT 31/15 A3006 RMK A01 T03080154  RH  041%=      5-min Rain = 0
KLBW 161525Z 20011KT 31/16 A3006 RMK A01 T03080155  RH  041%=      5-min Rain = 0
KLBW 161530Z 20009KT 31/16 A3006 RMK A01 T03110155  RH  041%=      5-min Rain = 0
KLBW 161535Z 20010G17KT 32/16 A3006 RMK A01 T03170157  RH  040%=      5-min Rain = 0
KLBW 161540Z 22012G17KT 31/15 A3006 RMK A01 T03130154  RH  040%=      5-min Rain = 0
KLBW 161545Z 21012KT 32/15 A3007 RMK A01 T03150154  RH  040%=      5-min Rain = 0
KLBW 161550Z 20011KT 32/15 A3007 RMK A01 T03180152  RH  038%=      5-min Rain = 0
KLBW 161555Z 20011G18KT 32/15 A3007 RMK A01 T03230154  RH  038%=      5-min Rain = 0
KLBW 161600Z 22011G16KT 32/15 A3007 RMK A01 T03220154  RH  038%=      5-min Rain = 0
KLBW 161605Z 22012G18KT 32/15 A3007 RMK A01 T03190154  RH  039%=      5-min Rain = 0
KLBW 161610Z 20011G17KT 32/15 A3007 RMK A01 T03240153  RH  037%=      5-min Rain = 0
KLBW 161615Z 21010KT 33/15 A3007 RMK A01 T03280154  RH  037%=      5-min Rain = 0
KLBW 161620Z 20009KT 33/15 A3007 RMK A01 T03280154  RH  037%=      5-min Rain = 0
KLBW 161625Z 20010G17KT 33/16 A3007 RMK A01 T03310155  RH  036%=      5-min Rain = 0
KLBW 161630Z 19010G15KT 33/16 A3007 RMK A01 T03320155  RH  036%=      5-min Rain = 0
KLBW 161635Z 22010G17KT 34/15 A3007 RMK A01 T03350154  RH  035%=      5-min Rain = 0
KLBW 161640Z 22012G17KT 33/15 A3007 RMK A01 T03280152  RH  036%=      5-min Rain = 0
KLBW 161645Z 22012G17KT 33/15 A3007 RMK A01 T03290151  RH  036%=      5-min Rain = 0
KLBW 161650Z 21010KT 33/15 A3007 RMK A01 T03320153  RH  036%=      5-min Rain = 0
KLBW 161655Z 20010KT 34/15 A3007 RMK A01 T03360153  RH  035%=      5-min Rain = 0
KLBW 161700Z 18011G16KT 34/15 A3007 RMK A01 T03350150  RH  034%=      5-min Rain = 0
KLBW 161705Z 18012G17KT 34/15 A3007 RMK A01 T03410152  RH  034%=      5-min Rain = 0
KLBW 161710Z 20011G19KT 34/15 A3007 RMK A01 T03400153  RH  034%=      5-min Rain = 0
KLBW 161715Z 19011G17KT 34/15 A3007 RMK A01 T03420152  RH  034%=      5-min Rain = 0
KLBW 161720Z 19011G16KT 34/15 A3007 RMK A01 T03410152  RH  034%=      5-min Rain = 0
KLBW 161725Z 20011G17KT 34/15 A3007 RMK A01 T03440152  RH  033%=      5-min Rain = 0
KLBW 161730Z 19008G14KT 34/15 A3007 RMK A01 T03410149  RH  033%=      5-min Rain = 0
KLBW 161735Z 18010G16KT 35/15 A3007 RMK A01 T03470151  RH  032%=      5-min Rain = 0
KLBW 161740Z 19009KT 35/15 A3006 RMK A01 T03470152  RH  033%=      5-min Rain = 0
KLBW 161745Z 21011G16KT 35/15 A3006 RMK A01 T03480152  RH  032%=      5-min Rain = 0
KLBW 161750Z 21009G14KT 35/15 A3006 RMK A01 T03470151  RH  032%=      5-min Rain = 0
KLBW 161755Z 21010G15KT 35/15 A3007 RMK A01 T03490148  RH  031%=      5-min Rain = 0
KLBW 161800Z 19010KT 35/15 A3006 RMK A01 T03500148  RH  031%=      5-min Rain = 0
KLBW 161805Z 19007G12KT 35/15 A3006 RMK A01 T03500148  RH  031%=      5-min Rain = 0
KLBW 161810Z 20010G17KT 35/15 A3006 RMK A01 T03530151  RH  031%=      5-min Rain = 0
KLBW 161815Z 19008G13KT 36/14 A3006 RMK A01 T03550144  RH  030%=      5-min Rain = 0
KLBW 161820Z 18007KT 36/15 A3006 RMK A01 T03560145  RH  030%=      5-min Rain = 0
KLBW 161825Z 21008G13KT 36/15 A3006 RMK A01 T03550145  RH  030%=      5-min Rain = 0
KLBW 161830Z 20009G16KT 36/14 A3006 RMK A01 T03580144  RH  029%=      5-min Rain = 0
KLBW 161835Z 19007G14KT 35/14 A3006 RMK A01 T03530144  RH  030%=      5-min Rain = 0
KLBW 161840Z 20008G14KT 36/15 A3005 RMK A01 T03580146  RH  030%=      5-min Rain = 0
KLBW 161845Z 22008KT 36/15 A3005 RMK A01 T03600148  RH  030%=      5-min Rain = 0
KLBW 161850Z 21012G19KT 35/15 A3005 RMK A01 T03490147  RH  031%=      5-min Rain = 0
KLBW 161855Z 20008G15KT 36/15 A3005 RMK A01 T03600147  RH  029%=      5-min Rain = 0
KLBW 161900Z 22011KT 36/15 A3005 RMK A01 T03630148  RH  029%=      5-min Rain = 0
KLBW 161905Z 21008G17KT 36/15 A3005 RMK A01 T03630147  RH  029%=      5-min Rain = 0
KLBW 161910Z 19009KT 36/13 A3004 RMK A01 T03610134  RH  027%=      5-min Rain = 0
KLBW 161915Z 16012G17KT 37/13 A3005 RMK A01 T03670127  RH  025%=      5-min Rain = 0
KLBW 161920Z 17011G16KT 37/13 A3004 RMK A01 T03660130  RH  025%=      5-min Rain = 0
KLBW 161925Z 18008G14KT 36/13 A3004 RMK A01 T03640129  RH  025%=      5-min Rain = 0
KLBW 161930Z 17008G13KT 37/14 A3004 RMK A01 T03710137  RH  026%=      5-min Rain = 0
KLBW 161935Z 17010G16KT 37/13 A3004 RMK A01 T03700132  RH  025%=      5-min Rain = 0
KLBW 161940Z 18007G12KT 36/13 A3004 RMK A01 T03640131  RH  026%=      5-min Rain = 0
KLBW 161945Z 16008G14KT 35/13 A3004 RMK A01 T03530129  RH  027%=      5-min Rain = 0
KLBW 161950Z 17011G16KT 36/13 A3003 RMK A01 T03600127  RH  026%=      5-min Rain = 0
KLBW 161955Z 19010G16KT 37/12 A3003 RMK A01 T03710124  RH  024%=      5-min Rain = 0
KLBW 162000Z 17009G14KT 37/12 A3002 RMK A01 T03710121  RH  023%=      5-min Rain = 0
KLBW 162005Z 17010G15KT 38/13 A3002 RMK A01 T03760129  RH  024%=      5-min Rain = 0
KLBW 162010Z 15010G16KT 38/13 A3002 RMK A01 T03770125  RH  023%=      5-min Rain = 0
KLBW 162015Z 17010KT 37/12 A3002 RMK A01 T03710123  RH  023%=      5-min Rain = 0
KLBW 162020Z 16010G15KT 38/13 A3002 RMK A01 T03760128  RH  024%=      5-min Rain = 0
KLBW 162025Z 17010G17KT 38/13 A3002 RMK A01 T03800130  RH  023%=      5-min Rain = 0
KLBW 162030Z 20012G17KT 37/13 A3001 RMK A01 T03720129  RH  024%=      5-min Rain = 0
KLBW 162035Z 19010G16KT 37/13 A3001 RMK A01 T03730127  RH  024%=      5-min Rain = 0
KLBW 162040Z 18009G15KT 37/12 A3001 RMK A01 T03730122  RH  023%=      5-min Rain = 0
KLBW 162045Z 17010KT 37/12 A3001 RMK A01 T03730119  RH  023%=      5-min Rain = 0
KLBW 162050Z 16010KT 37/12 A3001 RMK A01 T03700120  RH  023%=      5-min Rain = 0
KLBW 162055Z 17010G16KT 37/12 A3001 RMK A01 T03680116  RH  023%=      5-min Rain = 0
KLBW 162100Z 16008KT 37/12 A30 RMK A01 T03700115  RH  022%=      5-min Rain = 0
KLBW 162105Z 17009G14KT 38/12 A30 RMK A01 T03760116  RH  022%=      5-min Rain = 0
KLBW 162110Z 18009G15KT 38/12 A30 RMK A01 T03750115  RH  022%=      5-min Rain = 0
KLBW 162115Z 15009KT 37/12 A30 RMK A01 T03720115  RH  022%=      5-min Rain = 0
KLBW 162120Z 16008G13KT 37/12 A30 RMK A01 T03680115  RH  023%=      5-min Rain = 0
KLBW 162125Z 17008G14KT 37/12 A2999 RMK A01 T03730116  RH  022%=      5-min Rain = 0
KLBW 162130Z 13009G14KT 37/12 A2999 RMK A01 T03720115  RH  022%=      5-min Rain = 0
KLBW 162135Z 15010KT 37/11 A2999 RMK A01 T03730111  RH  021%=      5-min Rain = 0
KLBW 162140Z 17010G16KT 37/11 A2999 RMK A01 T03710112  RH  022%=      5-min Rain = 0
KLBW 162145Z 19009G15KT 37/11 A2998 RMK A01 T03740110  RH  021%=      5-min Rain = 0
KLBW 162150Z 17012G19KT 37/11 A2998 RMK A01 T03700110  RH  022%=      5-min Rain = 0
KLBW 162155Z 16009G16KT 36/11 A2998 RMK A01 T03630109  RH  022%=      5-min Rain = 0
KLBW 162200Z 17009KT 37/11 A2998 RMK A01 T03720109  RH  021%=      5-min Rain = 0
KLBW 162205Z 17008KT 38/11 A2998 RMK A01 T03750108  RH  021%=      5-min Rain = 0
KLBW 162210Z 18009G16KT 38/11 A2998 RMK A01 T03760107  RH  020%=      5-min Rain = 0
KLBW 162215Z 16010G19KT 38/11 A2997 RMK A01 T03750107  RH  021%=      5-min Rain = 0
KLBW 162220Z 18010G16KT 37/10 A2997 RMK A01 T03720104  RH  021%=      5-min Rain = 0
KLBW 162225Z 16009KT 37/10 A2997 RMK A01 T03710104  RH  021%=      5-min Rain = 0
KLBW 162230Z 18011KT 37/10 A2997 RMK A01 T03730102  RH  020%=      5-min Rain = 0
KLBW 162235Z 17010G17KT 37/10 A2997 RMK A01 T03730104  RH  020%=      5-min Rain = 0
KLBW 162240Z 16010KT 37/10 A2997 RMK A01 T03740104  RH  020%=      5-min Rain = 0
KLBW 162245Z 16009G14KT 37/10 A2997 RMK A01 T03740103  RH  020%=      5-min Rain = 0
KLBW 162250Z 18008KT 37/10 A2996 RMK A01 T03730102  RH  020%=      5-min Rain = 0
KLBW 162255Z 19014KT 37/10 A2996 RMK A01 T03710100  RH  020%=      5-min Rain = 0
KLBW 162300Z 17009KT 37/10 A2996 RMK A01 T03700101  RH  020%=      5-min Rain = 0
KLBW 162305Z 17009G14KT 37/10 A2996 RMK A01 T03660100  RH  021%=      5-min Rain = 0
KLBW 162310Z 16008G13KT 37/10 A2996 RMK A01 T03670102  RH  021%=      5-min Rain = 0
KLBW 162315Z 17010G16KT 36/10 A2996 RMK A01 T03640101  RH  021%=      5-min Rain = 0
KLBW 162320Z 18010G15KT 36/10 A2996 RMK A01 T03640100  RH  021%=      5-min Rain = 0
KLBW 162325Z 18009KT 37/10 A2996 RMK A01 T03660099  RH  020%=      5-min Rain = 0
KLBW 162330Z 16008G13KT 37/10 A2996 RMK A01 T03650101  RH  021%=      5-min Rain = 0
KLBW 162335Z 17010G16KT 36/10 A2996 RMK A01 T03640099  RH  021%=      5-min Rain = 0
KLBW 162340Z 15010G15KT 36/10 A2996 RMK A01 T03620098  RH  021%=      5-min Rain = 0
KLBW 162345Z 17010KT 36/10 A2996 RMK A01 T03620099  RH  021%=      5-min Rain = 0
KLBW 162350Z 17010KT 36/10 A2996 RMK A01 T03620099  RH  021%=      5-min Rain = 0
KLBW 162355Z 16010KT 36/10 A2996 RMK A01 T03610096  RH  021%=      5-min Rain = 0
KLBW 170000Z 15008KT 36/10 A2996 RMK A01 T03610098  RH  021%=      5-min Rain = 0
KLBW 170005Z 16012KT 36/10 A2996 RMK A01 T03600096  RH  021%=      5-min Rain = 0
KLBW 170010Z 16010G15KT 36/09 A2996 RMK A01 T03570094  RH  021%=      5-min Rain = 0
KLBW 170015Z 16008G14KT 36/10 A2996 RMK A01 T03570095  RH  021%=      5-min Rain = 0
KLBW 170020Z 16009KT 36/10 A2996 RMK A01 T03550095  RH  021%=      5-min Rain = 0
KLBW 170025Z 13009KT 35/10 A2996 RMK A01 T03500097  RH  022%=      5-min Rain = 0
KLBW 170030Z 14009KT 35/10 A2996 RMK A01 T03470099  RH  023%=      5-min Rain = 0
KLBW 170035Z 15007KT 35/10 A2996 RMK A01 T03480099  RH  023%=      5-min Rain = 0
KLBW 170040Z 16008G13KT 35/10 A2996 RMK A01 T03480099  RH  023%=      5-min Rain = 0
KLBW 170045Z 17011G16KT 35/09 A2996 RMK A01 T03490091  RH  021%=      5-min Rain = 0
KLBW 170050Z 16009KT 35/09 A2996 RMK A01 T03490090  RH  021%=      5-min Rain = 0
KLBW 170055Z 15007KT 35/09 A2996 RMK A01 T03490094  RH  022%=      5-min Rain = 0
KLBW 170100Z 16007KT 35/10 A2996 RMK A01 T03490095  RH  022%=      5-min Rain = 0
KLBW 170105Z 16007KT 35/10 A2997 RMK A01 T03470095  RH  022%=      5-min Rain = 0
KLBW 170110Z 15007G12KT 35/09 A2997 RMK A01 T03460092  RH  022%=      5-min Rain = 0
KLBW 170115Z 16008KT 34/09 A2997 RMK A01 T03440094  RH  022%=      5-min Rain = 0
KLBW 170120Z 15007KT 34/09 A2997 RMK A01 T03420094  RH  023%=      5-min Rain = 0
KLBW 170125Z 15006KT 34/10 A2998 RMK A01 T03390097  RH  023%=      5-min Rain = 0
KLBW 170130Z 15005KT 34/10 A2998 RMK A01 T03370098  RH  024%=      5-min Rain = 0
KLBW 170135Z 16006KT 33/10 A2998 RMK A01 T03330101  RH  025%=      5-min Rain = 0
KLBW 170140Z 16007G12KT 33/10 A2998 RMK A01 T03320100  RH  025%=      5-min Rain = 0
KLBW 170145Z 16008KT 33/10 A2998 RMK A01 T03300101  RH  025%=      5-min Rain = 0
KLBW 170150Z 16007KT 33/10 A2998 RMK A01 T03280101  RH  026%=      5-min Rain = 0
KLBW 170155Z 16006KT 33/10 A2998 RMK A01 T03260103  RH  026%=      5-min Rain = 0
KLBW 170200Z 16006KT 32/10 A2998 RMK A01 T03230104  RH  027%=      5-min Rain = 0
KLBW 170205Z 16006KT 32/11 A2998 RMK A01 T03220107  RH  028%=      5-min Rain = 0
KLBW 170210Z 16006KT 32/11 A2999 RMK A01 T03190108  RH  028%=      5-min Rain = 0
KLBW 170215Z 16006KT 32/11 A2999 RMK A01 T03170111  RH  029%=      5-min Rain = 0
KLBW 170220Z 16006KT 32/11 A2999 RMK A01 T03150113  RH  030%=      5-min Rain = 0
KLBW 170225Z 17006KT 31/11 A2999 RMK A01 T03130112  RH  030%=      5-min Rain = 0
KLBW 170230Z 16005KT 31/11 A2999 RMK A01 T03110111  RH  030%=      5-min Rain = 0
KLBW 170235Z 16004KT 31/11 A30 RMK A01 T03090112  RH  031%=      5-min Rain = 0
KLBW 170240Z 16004KT 31/11 A30 RMK A01 T03070112  RH  031%=      5-min Rain = 0
KLBW 170245Z 17004KT 31/11 A3001 RMK A01 T03050113  RH  032%=      5-min Rain = 0
KLBW 170250Z 17004KT 30/11 A3001 RMK A01 T03020113  RH  032%=      5-min Rain = 0
KLBW 170255Z 17004KT 30/11 A3001 RMK A01 T02990114  RH  033%=      5-min Rain = 0
KLBW 170300Z 14005KT 30/12 A3001 RMK A01 T02950117  RH  035%=      5-min Rain = 0
KLBW 170305Z 13006KT 29/13 A3002 RMK A01 T02900128  RH  038%=      5-min Rain = 0
KLBW 170310Z 13006G11KT 29/13 A3002 RMK A01 T02920125  RH  037%=      5-min Rain = 0
KLBW 170315Z 13009G16KT 30/13 A3002 RMK A01 T03020129  RH  036%=      5-min Rain = 0
KLBW 170320Z 14008KT 30/13 A3002 RMK A01 T03040133  RH  037%=      5-min Rain = 0
KLBW 170325Z 14009KT 30/14 A3003 RMK A01 T03040136  RH  037%=      5-min Rain = 0
KLBW 170330Z 14008KT 30/14 A3003 RMK A01 T03020138  RH  038%=      5-min Rain = 0
KLBW 170335Z 13008KT 30/14 A3003 RMK A01 T03000139  RH  039%=      5-min Rain = 0
KLBW 170340Z 14008G13KT 30/14 A3003 RMK A01 T02990140  RH  039%=      5-min Rain = 0
KLBW 170345Z 14008KT 30/14 A3003 RMK A01 T02980141  RH  040%=      5-min Rain = 0
KLBW 170350Z 13008G13KT 30/14 A3003 RMK A01 T02970143  RH  041%=      5-min Rain = 0
KLBW 170355Z 14008G13KT 30/14 A3004 RMK A01 T02960143  RH  041%=      5-min Rain = 0
KLBW 170400Z 14009KT 30/14 A3004 RMK A01 T02960144  RH  041%=      5-min Rain = 0
KLBW 170405Z 14008G13KT 30/14 A3004 RMK A01 T02960144  RH  041%=      5-min Rain = 0
KLBW 170410Z 14009G14KT 30/15 A3004 RMK A01 T02950145  RH  042%=      5-min Rain = 0
KLBW 170415Z 13008G13KT 29/15 A3004 RMK A01 T02940146  RH  042%=      5-min Rain = 0
KLBW 170420Z 14008KT 29/15 A3004 RMK A01 T02930146  RH  042%=      5-min Rain = 0
KLBW 170425Z 14008KT 29/15 A3004 RMK A01 T02920146  RH  043%=      5-min Rain = 0
KLBW 170430Z 14008KT 29/15 A3004 RMK A01 T02920146  RH  043%=      5-min Rain = 0
KLBW 170435Z 14009KT 29/15 A3004 RMK A01 T02910146  RH  043%=      5-min Rain = 0
KLBW 170440Z 14009KT 29/15 A3004 RMK A01 T02900147  RH  044%=      5-min Rain = 0
KLBW 170445Z 14010G15KT 29/15 A3004 RMK A01 T02900147  RH  044%=      5-min Rain = 0
KLBW 170450Z 14010G16KT 29/15 A3004 RMK A01 T02900147  RH  044%=      5-min Rain = 0
KLBW 170455Z 14011G18KT 29/15 A3003 RMK A01 T02910147  RH  043%=      5-min Rain = 0

Page generated in 0.0173 seconds.